Time;durP1;ratioP1;P1;durP2;ratioP2;P2;SDS_P1;SDS_P2;PMS_P1;PMS_P2;Temp;Humidity;BMP_temperature;BMP_pressure;BME280_temperature;BME280_humidity;BME280_pressure;Samples;Min_cycle;Max_cycle;Signal;HPM_P1;HPM_P2
2023/02/10 00:00:53;;;;;;;;;;;;;;;-2.05;72.12;102352.41;105051;1293;74039;-76
2023/02/10 00:03:39;;;;;;;;;;;;;;;-2.07;72.17;102343.69;105185;1291;67970;-76
2023/02/10 00:06:26;;;;;;;;;;;;;;;-2.09;72.23;102342.59;105051;1292;70795;-76
2023/02/10 00:09:13;;;;;;;;;;;;;;;-2.11;72.18;102339.94;105125;1290;59302;-76
2023/02/10 00:11:59;;;;;;;;;;;;;;;-2.14;72.07;102344.44;105133;1289;61264;-76
2023/02/10 00:14:45;;;;;;;;;;;;;;;-2.17;72.16;102344.07;105150;1290;73845;-76
2023/02/10 00:17:32;;;;;;;;;;;;;;;-2.19;72.24;102342.09;105107;1288;67823;-76
2023/02/10 00:20:18;;;;;;;;;;;;;;;-2.20;72.15;102348.75;104926;1291;72117;-76
2023/02/10 00:23:04;;;;;;;;;;;;;;;-2.23;72.22;102346.24;105095;1289;61106;-76
2023/02/10 00:25:50;;;;;;;;;;;;;;;-2.24;72.23;102344.98;105079;1288;67100;-76
2023/02/10 00:28:36;;;;;;;;;;;;;;;-2.25;72.17;102336.45;104938;1293;73815;-76
2023/02/10 00:31:22;;;;;;;;;;;;;;;-2.25;72.22;102330.52;105080;1290;70000;-76
2023/02/10 00:34:15;;;;;;;;;;;;;;;-2.26;72.23;102334.52;105064;1292;74075;-76
2023/02/10 00:37:01;;;;;;;;;;;;;;;-2.27;72.24;102331.09;104892;1291;61126;-76
2023/02/10 00:39:47;;;;;;;;;;;;;;;-2.27;72.27;102330.45;105051;1289;61401;-76
2023/02/10 00:42:33;;;;;;;;;;;;;;;-2.25;72.32;102328.03;105052;1289;73218;-76
2023/02/10 00:45:20;;;;;;;;;;;;;;;-2.22;72.35;102329.42;105042;1290;70087;-76
2023/02/10 00:48:06;;;;;;;;;;;;;;;-2.18;72.45;102326.79;104922;1289;71242;-76
2023/02/10 00:50:52;;;;;;;;;;;;;;;-2.13;72.45;102332.83;104922;1289;61322;-76
2023/02/10 00:53:38;;;;;;;;;;;;;;;-2.09;72.44;102333.80;105086;1290;60341;-76
2023/02/10 00:56:25;;;;;;;;;;;;;;;-2.04;72.50;102336.64;105050;1290;73305;-76
2023/02/10 00:59:12;;;;;;;;;;;;;;;-1.98;72.44;102328.88;105062;1289;71839;-76
2023/02/10 01:01:58;;;;;;;;;;;;;;;-1.92;72.45;102325.69;104968;1289;71213;-76
2023/02/10 01:04:44;;;;;;;;;;;;;;;-1.86;72.44;102328.77;104940;1295;61230;-76
2023/02/10 01:07:30;;;;;;;;;;;;;;;-1.80;72.47;102323.40;105047;1291;63606;-76
2023/02/10 01:10:16;;;;;;;;;;;;;;;-1.75;72.50;102324.90;105082;1289;75132;-76
2023/02/10 01:13:03;;;;;;;;;;;;;;;-1.69;72.51;102315.13;105092;1289;70066;-76
2023/02/10 01:15:49;;;;;;;;;;;;;;;-1.63;72.47;102321.04;104946;1289;73093;-76
2023/02/10 01:18:36;;;;;;;;;;;;;;;-1.58;72.53;102322.36;105012;1290;61018;-76
2023/02/10 01:21:22;;;;;;;;;;;;;;;-1.53;72.52;102317.25;105022;1290;60474;-77
2023/02/10 01:24:09;;;;;;;;;;;;;;;-1.49;72.48;102313.76;104926;1291;74056;-76
2023/02/10 01:26:55;;;;;;;;;;;;;;;-1.44;72.45;102314.22;105035;1293;67118;-76
2023/02/10 01:29:41;;;;;;;;;;;;;;;-1.39;72.49;102314.85;104967;1290;71261;-76
2023/02/10 01:32:27;;;;;;;;;;;;;;;-1.36;72.53;102303.75;105019;1289;61379;-76
2023/02/10 01:35:13;;;;;;;;;;;;;;;-1.31;72.51;102301.14;104991;1290;61280;-76
2023/02/10 01:37:59;;;;;;;;;;;;;;;-1.27;72.54;102301.04;105018;1289;74316;-76
2023/02/10 01:40:47;;;;;;;;;;;;;;;-1.23;72.52;102296.88;105081;1292;67115;-77
2023/02/10 01:43:53;;;;;;;;;;;;;;;-1.19;72.50;102299.46;105066;1290;72066;-76
2023/02/10 01:46:39;;;;;;;;;;;;;;;-1.15;72.52;102312.59;105081;1290;60653;-76
2023/02/10 01:49:30;;;;;;;;;;;;;;;-1.11;72.50;102322.14;105070;1289;63268;-76
2023/02/10 01:52:20;;;;;;;;;;;;;;;-1.07;72.52;102324.22;105889;1290;73571;-77
2023/02/10 01:55:12;;;;;;;;;;;;;;;-1.02;72.52;102324.63;106077;1288;67280;-77
2023/02/10 01:57:58;;;;;;;;;;;;;;;-0.98;72.48;102324.36;105945;1288;72812;-77
2023/02/10 02:00:44;;;;;;;;;;;;;;;-0.94;72.53;102319.33;105921;1291;59425;-77
2023/02/10 02:03:30;;;;;;;;;;;;;;;-0.90;72.49;102313.64;106104;1290;58915;-77
2023/02/10 02:06:16;;;;;;;;;;;;;;;-0.86;72.45;102310.50;106159;1288;73353;-77
2023/02/10 02:09:02;;;;;;;;;;;;;;;-0.83;72.44;102315.25;106086;1290;68642;-77
2023/02/10 02:12:08;;;;;;;;;;;;;;;-0.80;72.45;102316.45;106054;1289;72302;-77
2023/02/10 02:15:02;;;;;;;;;;;;;;;-0.76;72.50;102320.77;105326;1296;59342;-77
2023/02/10 02:17:54;;;;;;;;;;;;;;;-0.72;72.43;102319.94;105394;1296;59486;-77
2023/02/10 02:20:40;;;;;;;;;;;;;;;-0.69;72.43;102324.16;105359;1296;74578;-77
2023/02/10 02:23:46;;;;;;;;;;;;;;;-0.67;72.53;102321.95;105324;1296;68782;-77
2023/02/10 02:27:10;;;;;;;;;;;;;;;-0.62;72.39;102326.58;104975;1302;72613;-77
2023/02/10 02:30:08;;;;;;;;;;;;;;;-0.59;72.52;102326.27;104505;1308;59328;-77
2023/02/10 02:32:58;;;;;;;;;;;;;;;-0.56;72.48;102327.63;104547;1308;60179;-77
2023/02/10 02:35:48;;;;;;;;;;;;;;;-0.54;72.52;102328.78;104477;1308;74594;-77
2023/02/10 02:38:41;;;;;;;;;;;;;;;-0.51;72.53;102329.76;104452;1311;67551;-77
2023/02/10 02:41:27;;;;;;;;;;;;;;;-0.49;72.51;102324.61;104447;1308;73135;-77
2023/02/10 02:44:13;;;;;;;;;;;;;;;-0.47;72.54;102323.20;104488;1309;59015;-77
2023/02/10 02:47:06;;;;;;;;;;;;;;;-0.45;72.53;102322.64;104459;1308;59088;-76
2023/02/10 02:50:12;;;;;;;;;;;;;;;-0.43;72.51;102318.51;104510;1308;75100;-77
2023/02/10 02:53:10;;;;;;;;;;;;;;;-0.41;72.55;102324.20;103870;1307;69595;-77
2023/02/10 02:56:07;;;;;;;;;;;;;;;-0.40;72.52;102324.09;104458;1308;72173;-77
2023/02/10 02:58:53;;;;;;;;;;;;;;;-0.40;72.53;102331.59;104424;1307;58959;-77
2023/02/10 03:01:45;;;;;;;;;;;;;;;-0.38;72.60;102328.11;104999;1302;59214;-77
2023/02/10 03:04:33;;;;;;;;;;;;;;;-0.37;72.57;102336.33;105477;1294;75317;-77
2023/02/10 03:07:20;;;;;;;;;;;;;;;-0.35;72.55;102341.68;105512;1296;69049;-77
2023/02/10 03:10:06;;;;;;;;;;;;;;;-0.32;72.61;102337.05;105443;1297;71371;-77
2023/02/10 03:12:52;;;;;;;;;;;;;;;-0.31;72.63;102335.13;105514;1295;59100;-77
2023/02/10 03:15:37;;;;;;;;;;;;;;;-0.30;72.63;102337.20;105526;1296;60232;-76
2023/02/10 03:18:23;;;;;;;;;;;;;;;-0.28;72.53;102335.27;105577;1296;75037;-77
2023/02/10 03:21:09;;;;;;;;;;;;;;;-0.27;72.62;102335.33;105519;1294;67965;-77
2023/02/10 03:23:55;;;;;;;;;;;;;;;-0.25;72.65;102340.38;105544;1294;73691;-77
2023/02/10 03:26:41;;;;;;;;;;;;;;;-0.23;72.64;102344.37;105521;1294;59115;-77
2023/02/10 03:29:27;;;;;;;;;;;;;;;-0.21;72.67;102347.02;105706;1290;59959;-77
2023/02/10 03:32:13;;;;;;;;;;;;;;;-0.19;72.66;102342.20;106044;1291;74387;-76
2023/02/10 03:34:59;;;;;;;;;;;;;;;-0.18;72.62;102346.00;106082;1289;66428;-77
2023/02/10 03:37:45;;;;;;;;;;;;;;;-0.17;72.61;102342.86;106090;1290;72142;-77
2023/02/10 03:40:30;;;;;;;;;;;;;;;-0.15;72.69;102342.77;105944;1289;59147;-77
2023/02/10 03:43:17;;;;;;;;;;;;;;;-0.13;72.72;102343.05;105082;1290;61051;-77
2023/02/10 03:46:04;;;;;;;;;;;;;;;-0.12;72.75;102345.80;105076;1290;73387;-76
2023/02/10 03:48:50;;;;;;;;;;;;;;;-0.12;72.72;102352.27;105057;1290;67175;-76
2023/02/10 03:51:36;;;;;;;;;;;;;;;-0.12;72.72;102352.11;105033;1290;73950;-76
2023/02/10 03:54:22;;;;;;;;;;;;;;;-0.11;72.78;102359.29;104991;1290;61145;-77
2023/02/10 03:57:09;;;;;;;;;;;;;;;-0.10;72.73;102364.24;105019;1293;61196;-76
2023/02/10 03:59:56;;;;;;;;;;;;;;;-0.09;72.81;102366.20;105072;1290;75245;-76
2023/02/10 04:02:42;;;;;;;;;;;;;;;-0.08;72.71;102362.15;105032;1290;69924;-76
2023/02/10 04:05:28;;;;;;;;;;;;;;;-0.10;72.75;102361.19;105018;1288;71555;-76
2023/02/10 04:08:14;;;;;;;;;;;;;;;-0.14;72.73;102357.95;105019;1292;61112;-76
2023/02/10 04:11:00;;;;;;;;;;;;;;;-0.18;72.71;102349.56;105070;1291;61554;-76
2023/02/10 04:13:46;;;;;;;;;;;;;;;-0.21;72.80;102352.95;104908;1293;73233;-76
2023/02/10 04:16:33;;;;;;;;;;;;;;;-0.24;72.78;102347.56;105056;1290;70038;-76
2023/02/10 04:19:19;;;;;;;;;;;;;;;-0.26;72.75;102342.48;105116;1289;71190;-76
2023/02/10 04:22:05;;;;;;;;;;;;;;;-0.29;72.80;102344.02;104941;1290;61336;-76
2023/02/10 04:24:51;;;;;;;;;;;;;;;-0.31;72.77;102348.34;105107;1290;62902;-76
2023/02/10 04:27:37;;;;;;;;;;;;;;;-0.32;72.75;102351.45;104957;1289;76058;-76
2023/02/10 04:30:23;;;;;;;;;;;;;;;-0.33;72.80;102354.30;105048;1290;68704;-76
2023/02/10 04:33:09;;;;;;;;;;;;;;;-0.34;72.84;102354.25;105047;1290;70276;-76
2023/02/10 04:35:56;;;;;;;;;;;;;;;-0.35;72.84;102351.52;105075;1288;61024;-76
2023/02/10 04:38:42;;;;;;;;;;;;;;;-0.35;72.85;102352.85;105157;1291;59918;-77
2023/02/10 04:41:28;;;;;;;;;;;;;;;-0.35;72.86;102352.55;105037;1289;73878;-76
2023/02/10 04:44:14;;;;;;;;;;;;;;;-0.35;72.80;102350.67;105102;1289;71390;-76
2023/02/10 04:47:00;;;;;;;;;;;;;;;-0.35;72.89;102358.12;105061;1288;72074;-76
2023/02/10 04:49:47;;;;;;;;;;;;;;;-0.34;72.83;102357.98;105091;1293;59633;-76
2023/02/10 04:52:33;;;;;;;;;;;;;;;-0.34;72.92;102361.90;105105;1291;61369;-76
2023/02/10 04:55:19;;;;;;;;;;;;;;;-0.33;72.89;102358.05;105123;1287;74965;-76
2023/02/10 04:58:05;;;;;;;;;;;;;;;-0.32;72.87;102350.98;105137;1292;68107;-76
2023/02/10 05:00:53;;;;;;;;;;;;;;;-0.31;72.90;102347.45;105154;1288;74068;-76
2023/02/10 05:03:40;;;;;;;;;;;;;;;-0.33;72.96;102344.31;105073;1288;62188;-76
2023/02/10 05:06:26;;;;;;;;;;;;;;;-0.34;72.95;102334.27;105070;1288;61791;-77
2023/02/10 05:09:12;;;;;;;;;;;;;;;-0.35;72.96;102328.30;104900;1288;74276;-76
2023/02/10 05:11:58;;;;;;;;;;;;;;;-0.35;73.04;102324.23;105086;1291;69240;-76
2023/02/10 05:14:44;;;;;;;;;;;;;;;-0.37;73.02;102330.89;105000;1289;72189;-76
2023/02/10 05:17:30;;;;;;;;;;;;;;;-0.40;73.01;102321.92;105080;1289;59645;-76
2023/02/10 05:20:16;;;;;;;;;;;;;;;-0.43;73.02;102320.55;104975;1288;61338;-76
2023/02/10 05:23:02;;;;;;;;;;;;;;;-0.45;73.03;102329.73;105117;1291;74991;-76
2023/02/10 05:25:48;;;;;;;;;;;;;;;-0.45;73.14;102335.33;105076;1288;68056;-77
2023/02/10 05:28:35;;;;;;;;;;;;;;;-0.45;73.17;102347.88;105122;1288;72060;-76
2023/02/10 05:31:21;;;;;;;;;;;;;;;-0.44;73.17;102352.85;105106;1288;63700;-76
2023/02/10 05:34:08;;;;;;;;;;;;;;;-0.42;73.25;102354.33;105169;1288;61903;-76
2023/02/10 05:36:54;;;;;;;;;;;;;;;-0.39;73.18;102360.91;105186;1288;73296;-76
2023/02/10 05:39:40;;;;;;;;;;;;;;;-0.38;73.24;102359.13;105126;1288;67432;-76
2023/02/10 05:42:26;;;;;;;;;;;;;;;-0.36;73.25;102358.05;105045;1288;72560;-76
2023/02/10 05:45:12;;;;;;;;;;;;;;;-0.35;73.25;102357.77;105052;1290;61206;-76
2023/02/10 05:47:58;;;;;;;;;;;;;;;-0.33;73.32;102352.60;105004;1288;62069;-76
2023/02/10 05:50:44;;;;;;;;;;;;;;;-0.32;73.21;102343.88;104921;1291;73307;-76
2023/02/10 05:53:30;;;;;;;;;;;;;;;-0.31;73.27;102347.13;105121;1289;70010;-76
2023/02/10 05:56:16;;;;;;;;;;;;;;;-0.29;73.32;102356.05;105053;1290;74229;-76
2023/02/10 05:59:03;;;;;;;;;;;;;;;-0.28;73.39;102369.02;105070;1291;61091;-79
2023/02/10 06:01:49;;;;;;;;;;;;;;;-0.27;73.38;102368.71;104939;1291;64857;-77
2023/02/10 06:04:35;;;;;;;;;;;;;;;-0.26;73.33;102372.35;104885;1290;74745;-77
2023/02/10 06:07:21;;;;;;;;;;;;;;;-0.25;73.31;102377.48;105091;1291;68350;-77
2023/02/10 06:10:08;;;;;;;;;;;;;;;-0.24;73.45;102389.23;105064;1290;72076;-77
2023/02/10 06:12:54;;;;;;;;;;;;;;;-0.22;73.43;102396.44;104920;1291;59733;-77
2023/02/10 06:15:40;;;;;;;;;;;;;;;-0.21;73.41;102404.16;104969;1290;62339;-77
2023/02/10 06:18:26;;;;;;;;;;;;;;;-0.19;73.42;102409.19;105064;1291;73199;-78
2023/02/10 06:21:12;;;;;;;;;;;;;;;-0.17;73.49;102410.30;105108;1288;67348;-77
2023/02/10 06:23:58;;;;;;;;;;;;;;;-0.16;73.50;102404.45;105073;1289;71232;-77
2023/02/10 06:26:44;;;;;;;;;;;;;;;-0.15;73.48;102408.57;101225;1290;5003743;-77
2023/02/10 06:29:30;;;;;;;;;;;;;;;-0.13;73.45;102405.79;104968;1291;59560;-77
2023/02/10 06:32:17;;;;;;;;;;;;;;;-0.11;73.55;102408.77;105054;1293;75017;-77
2023/02/10 06:35:03;;;;;;;;;;;;;;;-0.10;73.55;102412.05;104917;1290;253385;-78
2023/02/10 06:37:49;;;;;;;;;;;;;;;-0.09;73.57;102417.17;105981;1291;72592;-78
2023/02/10 06:40:35;;;;;;;;;;;;;;;-0.08;73.59;102422.88;106063;1291;58866;-78
2023/02/10 06:43:21;;;;;;;;;;;;;;;-0.05;73.57;102428.64;106069;1289;58979;-78
2023/02/10 06:46:08;;;;;;;;;;;;;;;-0.02;73.61;102432.67;106077;1289;73444;-78
2023/02/10 06:48:54;;;;;;;;;;;;;;;0.01;73.61;102432.98;106002;1291;67154;-78
2023/02/10 06:51:40;;;;;;;;;;;;;;;0.04;73.66;102437.89;106044;1293;73166;-78
2023/02/10 06:54:26;;;;;;;;;;;;;;;0.07;73.60;102433.30;106005;1291;59421;-78
2023/02/10 06:57:12;;;;;;;;;;;;;;;0.09;73.67;102434.12;106078;1291;59101;-78
2023/02/10 06:59:58;;;;;;;;;;;;;;;0.12;73.72;102433.77;106042;1289;74563;-76
2023/02/10 07:02:44;;;;;;;;;;;;;;;0.16;73.63;102443.80;105877;1291;67940;-77
2023/02/10 07:05:31;;;;;;;;;;;;;;;0.18;73.75;102454.98;105829;1289;71185;-77
2023/02/10 07:08:17;;;;;;;;;;;;;;;0.22;73.74;102452.27;106038;1288;59333;-77
2023/02/10 07:11:03;;;;;;;;;;;;;;;0.25;73.76;102458.92;106002;1291;59741;-77
2023/02/10 07:13:49;;;;;;;;;;;;;;;0.28;73.78;102470.30;106033;1290;74066;-76
2023/02/10 07:16:35;;;;;;;;;;;;;;;0.32;73.84;102470.31;106031;1291;69009;-77
2023/02/10 07:19:20;;;;;;;;;;;;;;;0.35;73.85;102467.10;106063;1290;71391;-77
2023/02/10 07:22:06;;;;;;;;;;;;;;;0.39;73.87;102461.38;106004;1291;59138;-77
2023/02/10 07:24:53;;;;;;;;;;;;;;;0.43;73.87;102456.66;106006;1291;60358;-77
2023/02/10 07:27:39;;;;;;;;;;;;;;;0.47;73.86;102458.76;106002;1290;73206;-77
2023/02/10 07:30:25;;;;;;;;;;;;;;;0.50;73.90;102464.55;106005;1288;68910;-77
2023/02/10 07:33:10;;;;;;;;;;;;;;;0.54;73.94;102469.29;106027;1288;71369;-76
2023/02/10 07:36:02;;;;;;;;;;;;;;;0.57;73.99;102473.73;106044;1288;59470;-76
2023/02/10 07:38:47;;;;;;;;;;;;;;;0.60;73.96;102473.56;106040;1291;59933;-77
2023/02/10 07:41:33;;;;;;;;;;;;;;;0.64;74.05;102472.06;105967;1289;73137;-77
2023/02/10 07:44:28;;;;;;;;;;;;;;;0.67;74.04;102470.02;105930;1290;68373;-77
2023/02/10 07:47:14;;;;;;;;;;;;;;;0.71;74.04;102471.55;105954;1288;71274;-77
2023/02/10 07:50:00;;;;;;;;;;;;;;;0.75;74.07;102469.90;105847;1290;59084;-77
2023/02/10 07:52:47;;;;;;;;;;;;;;;0.79;74.11;102476.08;102059;1293;5164491;-77
2023/02/10 07:55:34;;;;;;;;;;;;;;;0.83;74.14;102474.44;106039;1291;74550;-77
2023/02/10 07:58:19;;;;;;;;;;;;;;;0.88;74.18;102470.45;105962;1289;68511;-77
2023/02/10 08:01:09;;;;;;;;;;;;;;;0.93;74.20;102470.74;106028;1293;71806;-76
2023/02/10 08:03:57;;;;;;;;;;;;;;;0.98;74.18;102467.11;105897;1295;59026;-77
2023/02/10 08:06:47;;;;;;;;;;;;;;;1.02;74.16;102477.48;106089;1289;59042;-80
2023/02/10 08:09:34;;;;;;;;;;;;;;;1.06;74.18;102481.23;106055;1288;75377;-77
2023/02/10 08:12:20;;;;;;;;;;;;;;;1.08;74.16;102487.80;105847;1289;68429;-77
2023/02/10 08:15:06;;;;;;;;;;;;;;;1.10;74.19;102487.39;106015;1288;71431;-77
2023/02/10 08:17:52;;;;;;;;;;;;;;;1.12;74.19;102484.95;105963;1290;59106;-77
2023/02/10 08:20:40;;;;;;;;;;;;;;;1.15;74.23;102486.65;105791;1291;59196;-77
2023/02/10 08:23:26;;;;;;;;;;;;;;;1.18;74.18;102488.50;105978;1290;76015;-77
2023/02/10 08:26:12;;;;;;;;;;;;;;;1.20;74.24;102479.28;105872;1291;66958;-77
2023/02/10 08:28:59;;;;;;;;;;;;;;;1.23;74.27;102469.40;105948;1291;71165;-77
2023/02/10 08:31:48;;;;;;;;;;;;;;;1.25;74.27;102474.60;105946;1291;59419;-77
2023/02/10 08:34:34;;;;;;;;;;;;;;;1.27;74.25;102483.72;105788;1292;59215;-77
2023/02/10 08:37:21;;;;;;;;;;;;;;;1.30;74.31;102491.51;105943;1290;73218;-77
2023/02/10 08:40:07;;;;;;;;;;;;;;;1.35;74.31;102494.80;105907;1291;68974;-77
2023/02/10 08:42:53;;;;;;;;;;;;;;;1.37;74.27;102500.34;105820;1289;72508;-77
2023/02/10 08:45:40;;;;;;;;;;;;;;;1.39;74.32;102512.34;105475;1291;61180;-77
2023/02/10 08:48:27;;;;;;;;;;;;;;;1.39;74.32;102514.73;105090;1293;61327;-77
2023/02/10 08:51:14;;;;;;;;;;;;;;;1.41;74.33;102514.30;105101;1293;74860;-76
2023/02/10 08:54:01;;;;;;;;;;;;;;;1.44;74.38;102508.02;104991;1293;67341;-77
2023/02/10 08:56:47;;;;;;;;;;;;;;;1.47;74.35;102509.04;105101;1289;71353;-76
2023/02/10 08:59:33;;;;;;;;;;;;;;;1.51;74.41;102509.55;105135;1290;61024;-76
2023/02/10 09:02:19;;;;;;;;;;;;;;;1.54;74.47;102511.26;105049;1293;59519;-76
2023/02/10 09:05:06;;;;;;;;;;;;;;;1.56;74.42;102513.23;105043;1288;73258;-79
2023/02/10 09:07:52;;;;;;;;;;;;;;;1.58;74.50;102508.05;105040;1293;69861;-79
2023/02/10 09:10:39;;;;;;;;;;;;;;;1.61;74.56;102502.44;105185;1291;72118;-79
2023/02/10 09:13:25;;;;;;;;;;;;;;;1.64;74.49;102509.41;105165;1293;61322;-79
2023/02/10 09:16:11;;;;;;;;;;;;;;;1.66;74.47;102520.52;105062;1290;61060;-79
2023/02/10 09:18:57;;;;;;;;;;;;;;;1.66;74.45;102520.51;105089;1289;74578;-78
2023/02/10 09:21:43;;;;;;;;;;;;;;;1.67;74.53;102517.67;105502;1289;66711;-79
2023/02/10 09:24:29;;;;;;;;;;;;;;;1.68;74.48;102514.64;104868;1295;73185;-79
2023/02/10 09:27:15;;;;;;;;;;;;;;;1.69;74.52;102517.95;104870;1291;61302;-79
2023/02/10 09:30:01;;;;;;;;;;;;;;;1.70;74.51;102522.58;104876;1291;59338;-79
2023/02/10 09:32:47;;;;;;;;;;;;;;;1.68;74.53;102525.53;105066;1294;74339;-76
2023/02/10 09:35:33;;;;;;;;;;;;;;;1.67;74.53;102522.77;105122;1289;67340;-76
2023/02/10 09:38:19;;;;;;;;;;;;;;;1.66;74.52;102519.33;105030;1294;73139;-76
2023/02/10 09:41:15;;;;;;;;;;;;;;;1.63;74.57;102526.83;104982;1296;61004;-77
2023/02/10 09:44:01;;;;;;;;;;;;;;;1.63;74.65;102526.69;104935;1289;61162;-77
2023/02/10 09:46:50;;;;;;;;;;;;;;;1.65;74.68;102519.31;105055;1296;75009;-78
2023/02/10 09:50:12;;;;;;;;;;;;;;;1.67;74.61;102521.75;105056;1293;67335;-78
2023/02/10 09:53:00;;;;;;;;;;;;;;;1.69;74.62;102531.22;104497;1302;72184;-78
2023/02/10 09:55:49;;;;;;;;;;;;;;;1.69;74.71;102521.19;104469;1296;61188;-78
2023/02/10 09:59:01;;;;;;;;;;;;;;;1.72;74.73;102521.86;104488;1297;60096;-78
2023/02/10 10:01:51;;;;;;;;;;;;;;;1.73;74.71;102523.44;104140;1303;74644;-79
2023/02/10 10:04:38;;;;;;;;;;;;;;;1.75;74.72;102523.35;103967;1303;66442;-79
2023/02/10 10:07:30;;;;;;;;;;;;;;;1.77;74.80;102522.79;103919;1303;74636;-79
2023/02/10 10:10:22;;;;;;;;;;;;;;;1.82;74.86;102524.73;103978;1305;61039;-79
2023/02/10 10:13:20;;;;;;;;;;;;;;;1.88;74.85;102528.46;104063;1302;61324;-78
2023/02/10 10:16:09;;;;;;;;;;;;;;;1.95;74.84;102528.61;104045;1303;73611;-78
2023/02/10 10:19:18;;;;;;;;;;;;;;;1.99;74.86;102533.95;104029;1305;68470;-78
2023/02/10 10:22:24;;;;;;;;;;;;;;;2.05;74.91;102538.81;103667;1310;71216;-79
2023/02/10 10:25:20;;;;;;;;;;;;;;;2.09;74.93;102531.32;103723;1311;62238;-79
2023/02/10 10:28:27;;;;;;;;;;;;;;;2.13;74.91;102531.02;103927;1307;61379;-78
2023/02/10 10:31:14;;;;;;;;;;;;;;;2.15;74.90;102526.85;103623;1306;74597;-81
2023/02/10 10:34:06;;;;;;;;;;;;;;;2.15;74.91;102535.38;103602;1311;68569;-80
2023/02/10 10:36:55;;;;;;;;;;;;;;;2.15;74.95;102533.85;103561;1309;71968;-80
2023/02/10 10:39:43;;;;;;;;;;;;;;;2.17;75.01;102531.04;103877;1302;61202;-80
2023/02/10 10:43:08;;;;;;;;;;;;;;;2.19;74.99;102526.86;103938;1307;61099;-80
2023/02/10 10:45:59;;;;;;;;;;;;;;;2.21;75.03;102528.35;103564;1309;73577;-80
2023/02/10 10:48:45;;;;;;;;;;;;;;;2.22;75.00;102527.74;103322;1312;67959;-80
2023/02/10 10:51:34;;;;;;;;;;;;;;;2.22;75.01;102523.46;103360;1309;71256;-80
2023/02/10 10:54:21;;;;;;;;;;;;;;;2.20;75.04;102525.25;103468;1309;61312;-81
2023/02/10 10:57:13;;;;;;;;;;;;;;;2.20;75.08;102527.77;103959;1308;60240;-80
2023/02/10 11:00:03;;;;;;;;;;;;;;;2.21;75.05;102530.58;103824;1302;74691;-79
2023/02/10 11:02:53;;;;;;;;;;;;;;;2.22;75.07;102525.54;103861;1308;67348;-81
2023/02/10 11:05:39;;;;;;;;;;;;;;;2.22;75.09;102522.11;104362;1307;72637;-80
2023/02/10 11:08:27;;;;;;;;;;;;;;;2.23;75.16;102516.88;104533;1297;61530;-80
2023/02/10 11:11:15;;;;;;;;;;;;;;;2.25;75.19;102520.70;104833;1296;59532;-79
2023/02/10 11:14:01;;;;;;;;;;;;;;;2.23;75.16;102521.48;104766;1300;73022;-81
2023/02/10 11:16:57;;;;;;;;;;;;;;;2.23;75.20;102523.52;105175;1295;68595;-81
2023/02/10 11:19:52;;;;;;;;;;;;;;;2.26;75.35;102517.54;105254;1291;73102;-80
2023/02/10 11:22:39;;;;;;;;;;;;;;;2.29;75.27;102513.60;105352;1290;59408;-80
2023/02/10 11:25:27;;;;;;;;;;;;;;;2.31;75.31;102519.15;104957;1291;59826;-80
2023/02/10 11:28:19;;;;;;;;;;;;;;;2.35;75.25;102521.52;104907;1291;73542;-80
2023/02/10 11:31:22;;;;;;;;;;;;;;;2.39;75.32;102524.30;104910;1289;68112;-80
2023/02/10 11:34:20;;;;;;;;;;;;;;;2.40;75.30;102522.30;105016;1293;73134;-79
2023/02/10 11:37:11;;;;;;;;;;;;;;;2.39;75.32;102516.28;104880;1290;61118;-79
2023/02/10 11:39:58;;;;;;;;;;;;;;;2.38;75.39;102511.98;104873;1295;61050;-79
2023/02/10 11:42:49;;;;;;;;;;;;;;;2.38;75.40;102511.30;105028;1293;73775;-79
2023/02/10 11:45:35;;;;;;;;;;;;;;;2.40;75.44;102512.92;104886;1290;71983;-79
2023/02/10 11:48:22;;;;;;;;;;;;;;;2.41;75.45;102507.52;104857;1290;74712;-79
2023/02/10 11:51:18;;;;;;;;;;;;;;;2.43;75.41;102501.64;104965;1289;59466;-78
2023/02/10 11:54:04;;;;;;;;;;;;;;;2.45;75.48;102497.71;104981;1293;61112;-78
2023/02/10 12:00:23;;;;;;;;;;;;;;;2.53;75.51;102501.65;105009;1290;67535;-79
2023/02/10 12:03:12;;;;;;;;;;;;;;;2.60;75.54;102501.10;104908;1291;74499;-79
2023/02/10 12:06:08;;;;;;;;;;;;;;;2.67;75.59;102503.29;104997;1293;61606;-80
2023/02/10 12:09:09;;;;;;;;;;;;;;;2.73;75.52;102502.35;105961;1290;59414;-78
2023/02/10 12:12:10;;;;;;;;;;;;;;;2.76;75.51;102505.74;106043;1289;75366;-80
2023/02/10 12:15:02;;;;;;;;;;;;;;;2.78;75.52;102506.38;106028;1289;67355;-78
2023/02/10 12:18:11;;;;;;;;;;;;;;;2.84;75.57;102510.55;105928;1289;71307;-78
2023/02/10 12:21:06;;;;;;;;;;;;;;;2.89;75.50;102505.17;105288;1298;59702;-79
2023/02/10 12:23:57;;;;;;;;;;;;;;;2.91;75.53;102507.14;105251;1299;59098;-78
2023/02/10 12:26:43;;;;;;;;;;;;;;;2.96;75.55;102502.60;105219;1298;74648;-78
2023/02/10 12:29:32;;;;;;;;;;;;;;;3.01;75.60;102505.55;105294;1299;67364;-80
2023/02/10 12:32:21;;;;;;;;;;;;;;;3.05;75.58;102506.92;105305;1298;73304;-79
2023/02/10 12:35:28;;;;;;;;;;;;;;;3.09;75.51;102513.38;105340;1298;59224;-78
2023/02/10 12:38:21;;;;;;;;;;;;;;;3.11;75.53;102516.20;103808;1305;61187;-77
2023/02/10 12:41:16;;;;;;;;;;;;;;;3.12;75.56;102514.55;103838;1304;72877;-78
2023/02/10 12:44:09;;;;;;;;;;;;;;;3.15;75.63;102517.91;103722;1306;68382;-78
2023/02/10 12:47:08;;;;;;;;;;;;;;;3.18;75.66;102517.52;103753;1305;72191;-78
2023/02/10 12:50:20;;;;;;;;;;;;;;;3.19;75.70;102519.80;103887;1304;61163;-78
2023/02/10 12:53:26;;;;;;;;;;;;;;;3.18;75.65;102519.06;103663;1310;61635;-78
2023/02/10 12:56:33;;;;;;;;;;;;;;;3.17;75.66;102521.40;103673;1308;74188;-78
2023/02/10 12:59:34;;;;;;;;;;;;;;;3.17;75.70;102526.84;103733;1305;66705;-78
2023/02/10 13:02:26;;;;;;;;;;;;;;;3.17;75.61;102524.61;103733;1305;71317;-78
2023/02/10 13:05:15;;;;;;;;;;;;;;;3.15;75.78;102519.77;103789;1307;60660;-78
2023/02/10 13:08:05;;;;;;;;;;;;;;;3.13;75.61;102517.65;103734;1304;61089;-78
2023/02/10 13:10:57;;;;;;;;;;;;;;;3.11;75.66;102517.77;103655;1309;74753;-78
2023/02/10 13:13:45;;;;;;;;;;;;;;;3.11;75.66;102519.80;103782;1308;67811;-78
2023/02/10 13:16:32;;;;;;;;;;;;;;;3.10;75.65;102521.27;104239;1302;72004;-78
2023/02/10 13:19:39;;;;;;;;;;;;;;;3.09;75.70;102518.85;104227;1300;61077;-78
2023/02/10 13:22:31;;;;;;;;;;;;;;;3.08;75.62;102514.20;103932;1303;59559;-79
2023/02/10 13:25:40;;;;;;;;;;;;;;;3.07;75.72;102512.64;103904;1306;74360;-79
2023/02/10 13:28:45;;;;;;;;;;;;;;;3.08;75.80;102516.40;104290;1302;66836;-78
2023/02/10 13:31:51;;;;;;;;;;;;;;;3.10;75.77;102514.81;103871;1307;71565;-78
2023/02/10 13:34:55;;;;;;;;;;;;;;;3.12;75.78;102512.31;103443;1311;61085;-78
2023/02/10 13:37:45;;;;;;;;;;;;;;;3.11;75.83;102508.55;103850;1307;59897;-79
2023/02/10 13:40:46;;;;;;;;;;;;;;;3.11;75.83;102507.86;103889;1307;74597;-77
2023/02/10 13:43:34;;;;;;;;;;;;;;;3.09;75.87;102505.88;103952;1302;68039;-77
2023/02/10 13:46:22;;;;;;;;;;;;;;;3.07;75.89;102506.30;103946;1305;72338;-78
2023/02/10 13:49:15;;;;;;;;;;;;;;;3.06;75.98;102505.25;103942;1302;59644;-80
2023/02/10 13:52:11;;;;;;;;;;;;;;;3.07;76.02;102508.69;103906;1305;59649;-82
2023/02/10 13:55:18;;;;;;;;;;;;;;;3.07;76.04;102505.81;103917;1302;74203;-76
2023/02/10 13:58:25;;;;;;;;;;;;;;;3.07;75.97;102507.17;103407;1308;69992;-79
2023/02/10 14:01:30;;;;;;;;;;;;;;;3.09;76.08;102508.95;104213;1309;71632;-80
2023/02/10 14:04:37;;;;;;;;;;;;;;;3.11;76.04;102509.37;104201;1312;59159;-79
2023/02/10 14:07:31;;;;;;;;;;;;;;;3.13;76.03;102510.67;103718;1314;59197;-79
2023/02/10 14:10:40;;;;;;;;;;;;;;;3.16;76.09;102509.23;103698;1315;74505;-79
2023/02/10 14:13:29;;;;;;;;;;;;;;;3.17;76.02;102508.27;103316;1320;67640;-78
2023/02/10 14:16:15;;;;;;;;;;;;;;;3.19;76.02;102504.95;103319;1322;71936;-79
2023/02/10 14:19:03;;;;;;;;;;;;;;;3.21;76.03;102508.98;103429;1319;59263;-79
2023/02/10 14:21:51;;;;;;;;;;;;;;;3.23;76.02;102509.55;103386;1317;59601;-80
2023/02/10 14:24:43;;;;;;;;;;;;;;;3.23;76.08;102503.77;103421;1319;75282;-76
2023/02/10 14:27:30;;;;;;;;;;;;;;;3.24;76.00;102505.02;103389;1319;69025;-80
2023/02/10 14:30:21;;;;;;;;;;;;;;;3.24;76.08;102502.13;103426;1319;71566;-81